sensor_id;sensor_type;location;lat;lon;timestamp;temperature;humidity
7216;DHT22;3649;48.798;9.798;2022-07-23T00:00:20;26.60;99.90
7216;DHT22;3649;48.798;9.798;2022-07-23T00:02:47;26.70;99.90
7216;DHT22;3649;48.798;9.798;2022-07-23T00:05:14;26.60;99.90
7216;DHT22;3649;48.798;9.798;2022-07-23T00:07:42;26.60;99.90
7216;DHT22;3649;48.798;9.798;2022-07-23T00:10:09;26.60;99.90
7216;DHT22;3649;48.798;9.798;2022-07-23T00:12:37;26.50;99.90
7216;DHT22;3649;48.798;9.798;2022-07-23T00:15:18;26.50;99.90
7216;DHT22;3649;48.798;9.798;2022-07-23T00:17:45;26.60;99.90
7216;DHT22;3649;48.798;9.798;2022-07-23T00:20:12;26.60;99.90
7216;DHT22;3649;48.798;9.798;2022-07-23T00:22:51;26.60;99.90
7216;DHT22;3649;48.798;9.798;2022-07-23T00:25:19;26.60;99.90
7216;DHT22;3649;48.798;9.798;2022-07-23T00:27:56;26.60;99.90
7216;DHT22;3649;48.798;9.798;2022-07-23T00:30:23;26.60;99.90
7216;DHT22;3649;48.798;9.798;2022-07-23T00:32:55;26.60;99.90
7216;DHT22;3649;48.798;9.798;2022-07-23T00:35:25;26.60;99.90
7216;DHT22;3649;48.798;9.798;2022-07-23T00:37:54;26.60;99.90
7216;DHT22;3649;48.798;9.798;2022-07-23T00:40:21;26.60;99.90
7216;DHT22;3649;48.798;9.798;2022-07-23T00:42:49;26.60;99.90
7216;DHT22;3649;48.798;9.798;2022-07-23T00:45:16;26.60;99.90
7216;DHT22;3649;48.798;9.798;2022-07-23T00:47:43;26.60;99.90
7216;DHT22;3649;48.798;9.798;2022-07-23T00:50:10;26.60;99.90
7216;DHT22;3649;48.798;9.798;2022-07-23T00:52:38;26.60;99.90
7216;DHT22;3649;48.798;9.798;2022-07-23T00:55:07;26.60;99.90
7216;DHT22;3649;48.798;9.798;2022-07-23T00:57:34;26.60;99.90
7216;DHT22;3649;48.798;9.798;2022-07-23T01:00:03;26.60;99.90
7216;DHT22;3649;48.798;9.798;2022-07-23T01:02:30;26.50;99.90
7216;DHT22;3649;48.798;9.798;2022-07-23T01:04:57;26.50;99.90
7216;DHT22;3649;48.798;9.798;2022-07-23T01:07:24;26.60;99.90
7216;DHT22;3649;48.798;9.798;2022-07-23T01:09:51;26.60;99.90
7216;DHT22;3649;48.798;9.798;2022-07-23T01:12:18;26.60;99.90
7216;DHT22;3649;48.798;9.798;2022-07-23T01:14:45;26.50;99.90
7216;DHT22;3649;48.798;9.798;2022-07-23T01:17:19;26.50;99.90
7216;DHT22;3649;48.798;9.798;2022-07-23T01:19:46;26.40;99.90
7216;DHT22;3649;48.798;9.798;2022-07-23T01:22:15;26.40;99.90
7216;DHT22;3649;48.798;9.798;2022-07-23T01:24:44;26.30;99.90
7216;DHT22;3649;48.798;9.798;2022-07-23T01:27:11;26.30;99.90
7216;DHT22;3649;48.798;9.798;2022-07-23T01:29:39;26.20;99.90
7216;DHT22;3649;48.798;9.798;2022-07-23T01:32:06;26.20;99.90
7216;DHT22;3649;48.798;9.798;2022-07-23T01:34:33;26.10;99.90
7216;DHT22;3649;48.798;9.798;2022-07-23T01:37:00;26.10;99.90
7216;DHT22;3649;48.798;9.798;2022-07-23T01:39:27;26.10;99.90
7216;DHT22;3649;48.798;9.798;2022-07-23T01:41:54;26.10;99.90
7216;DHT22;3649;48.798;9.798;2022-07-23T01:44:20;26.20;99.90
7216;DHT22;3649;48.798;9.798;2022-07-23T01:46:47;26.10;99.90
7216;DHT22;3649;48.798;9.798;2022-07-23T01:49:14;26.10;99.90
7216;DHT22;3649;48.798;9.798;2022-07-23T01:51:41;26.10;99.90
7216;DHT22;3649;48.798;9.798;2022-07-23T01:54:31;26.20;99.90
7216;DHT22;3649;48.798;9.798;2022-07-23T01:56:59;26.20;99.90
7216;DHT22;3649;48.798;9.798;2022-07-23T01:59:27;26.20;99.90
7216;DHT22;3649;48.798;9.798;2022-07-23T02:01:57;26.10;99.90
7216;DHT22;3649;48.798;9.798;2022-07-23T02:04:24;26.10;99.90
7216;DHT22;3649;48.798;9.798;2022-07-23T02:06:52;26.00;99.90
7216;DHT22;3649;48.798;9.798;2022-07-23T02:09:19;26.00;99.90
7216;DHT22;3649;48.798;9.798;2022-07-23T02:11:46;26.00;99.90
7216;DHT22;3649;48.798;9.798;2022-07-23T02:14:13;26.00;99.90
7216;DHT22;3649;48.798;9.798;2022-07-23T02:16:40;25.90;99.90
7216;DHT22;3649;48.798;9.798;2022-07-23T02:19:07;25.90;99.90
7216;DHT22;3649;48.798;9.798;2022-07-23T02:21:34;25.90;99.90
7216;DHT22;3649;48.798;9.798;2022-07-23T02:24:01;25.80;99.90
7216;DHT22;3649;48.798;9.798;2022-07-23T02:26:28;25.80;99.90
7216;DHT22;3649;48.798;9.798;2022-07-23T02:28:55;25.90;99.90
7216;DHT22;3649;48.798;9.798;2022-07-23T02:31:22;25.80;99.90
7216;DHT22;3649;48.798;9.798;2022-07-23T02:33:48;25.80;99.90
7216;DHT22;3649;48.798;9.798;2022-07-23T02:36:15;25.90;99.90
7216;DHT22;3649;48.798;9.798;2022-07-23T02:38:42;25.80;99.90
7216;DHT22;3649;48.798;9.798;2022-07-23T02:41:09;25.90;99.90
7216;DHT22;3649;48.798;9.798;2022-07-23T02:43:36;25.90;99.90
7216;DHT22;3649;48.798;9.798;2022-07-23T02:46:03;25.90;99.90
7216;DHT22;3649;48.798;9.798;2022-07-23T02:48:30;25.90;99.90
7216;DHT22;3649;48.798;9.798;2022-07-23T02:50:59;26.00;99.90
7216;DHT22;3649;48.798;9.798;2022-07-23T02:53:26;25.90;99.90
7216;DHT22;3649;48.798;9.798;2022-07-23T02:55:53;25.80;99.90
7216;DHT22;3649;48.798;9.798;2022-07-23T02:58:20;25.70;99.90
7216;DHT22;3649;48.798;9.798;2022-07-23T03:00:47;25.80;99.90
7216;DHT22;3649;48.798;9.798;2022-07-23T03:03:15;25.80;99.90
7216;DHT22;3649;48.798;9.798;2022-07-23T03:05:41;25.70;99.90
7216;DHT22;3649;48.798;9.798;2022-07-23T03:08:08;25.70;99.90
7216;DHT22;3649;48.798;9.798;2022-07-23T03:10:35;25.60;99.90
7216;DHT22;3649;48.798;9.798;2022-07-23T03:13:02;25.60;99.90
7216;DHT22;3649;48.798;9.798;2022-07-23T03:15:29;25.50;99.90
7216;DHT22;3649;48.798;9.798;2022-07-23T03:17:55;25.50;99.90
7216;DHT22;3649;48.798;9.798;2022-07-23T03:20:22;25.50;99.90
7216;DHT22;3649;48.798;9.798;2022-07-23T03:22:49;25.50;99.90
7216;DHT22;3649;48.798;9.798;2022-07-23T03:25:16;25.50;99.90
7216;DHT22;3649;48.798;9.798;2022-07-23T03:27:43;25.50;99.90
7216;DHT22;3649;48.798;9.798;2022-07-23T03:30:12;25.50;99.90
7216;DHT22;3649;48.798;9.798;2022-07-23T03:32:39;25.50;99.90
7216;DHT22;3649;48.798;9.798;2022-07-23T03:35:06;25.50;99.90
7216;DHT22;3649;48.798;9.798;2022-07-23T03:37:34;25.50;99.90
7216;DHT22;3649;48.798;9.798;2022-07-23T03:40:01;25.50;99.90
7216;DHT22;3649;48.798;9.798;2022-07-23T03:42:28;25.50;99.90
7216;DHT22;3649;48.798;9.798;2022-07-23T03:44:55;25.50;99.90
7216;DHT22;3649;48.798;9.798;2022-07-23T03:47:22;25.50;99.90
7216;DHT22;3649;48.798;9.798;2022-07-23T03:49:49;25.50;99.90
7216;DHT22;3649;48.798;9.798;2022-07-23T03:52:16;25.50;99.90
7216;DHT22;3649;48.798;9.798;2022-07-23T03:54:43;25.50;99.90
7216;DHT22;3649;48.798;9.798;2022-07-23T03:57:09;25.50;99.90
7216;DHT22;3649;48.798;9.798;2022-07-23T03:59:36;25.60;99.90
7216;DHT22;3649;48.798;9.798;2022-07-23T04:02:03;25.50;99.90
7216;DHT22;3649;48.798;9.798;2022-07-23T04:04:30;25.50;99.90
7216;DHT22;3649;48.798;9.798;2022-07-23T04:06:57;25.50;99.90
7216;DHT22;3649;48.798;9.798;2022-07-23T04:09:24;25.40;99.90
7216;DHT22;3649;48.798;9.798;2022-07-23T04:11:51;25.40;99.90
7216;DHT22;3649;48.798;9.798;2022-07-23T04:14:18;25.40;99.90
7216;DHT22;3649;48.798;9.798;2022-07-23T04:16:45;25.40;99.90
7216;DHT22;3649;48.798;9.798;2022-07-23T04:19:12;25.40;99.90
7216;DHT22;3649;48.798;9.798;2022-07-23T04:21:39;25.30;99.90
7216;DHT22;3649;48.798;9.798;2022-07-23T04:24:06;25.40;99.90
7216;DHT22;3649;48.798;9.798;2022-07-23T04:26:33;25.30;99.90
7216;DHT22;3649;48.798;9.798;2022-07-23T04:29:00;25.30;99.90
7216;DHT22;3649;48.798;9.798;2022-07-23T04:31:27;25.30;99.90
7216;DHT22;3649;48.798;9.798;2022-07-23T04:34:00;25.40;99.90
7216;DHT22;3649;48.798;9.798;2022-07-23T04:36:27;25.30;99.90
7216;DHT22;3649;48.798;9.798;2022-07-23T04:38:54;25.30;99.90
7216;DHT22;3649;48.798;9.798;2022-07-23T04:41:21;25.30;99.90
7216;DHT22;3649;48.798;9.798;2022-07-23T04:43:48;25.30;99.90
7216;DHT22;3649;48.798;9.798;2022-07-23T04:46:15;25.30;99.90
7216;DHT22;3649;48.798;9.798;2022-07-23T04:48:42;25.30;99.90
7216;DHT22;3649;48.798;9.798;2022-07-23T04:51:10;25.20;99.90
7216;DHT22;3649;48.798;9.798;2022-07-23T04:53:37;25.20;99.90
7216;DHT22;3649;48.798;9.798;2022-07-23T04:56:05;25.20;99.90
7216;DHT22;3649;48.798;9.798;2022-07-23T04:58:32;25.20;99.90
7216;DHT22;3649;48.798;9.798;2022-07-23T05:00:58;25.20;99.90
7216;DHT22;3649;48.798;9.798;2022-07-23T05:03:26;25.30;99.90
7216;DHT22;3649;48.798;9.798;2022-07-23T05:05:52;25.30;99.90
7216;DHT22;3649;48.798;9.798;2022-07-23T05:08:19;25.30;99.90
7216;DHT22;3649;48.798;9.798;2022-07-23T05:10:46;25.30;99.90
7216;DHT22;3649;48.798;9.798;2022-07-23T05:13:16;25.40;99.90
7216;DHT22;3649;48.798;9.798;2022-07-23T05:15:44;25.40;99.90
7216;DHT22;3649;48.798;9.798;2022-07-23T05:18:11;25.40;99.90
7216;DHT22;3649;48.798;9.798;2022-07-23T05:20:38;25.40;99.90
7216;DHT22;3649;48.798;9.798;2022-07-23T05:23:06;25.50;99.90
7216;DHT22;3649;48.798;9.798;2022-07-23T05:25:33;25.50;99.90
7216;DHT22;3649;48.798;9.798;2022-07-23T05:28:00;25.50;99.90
7216;DHT22;3649;48.798;9.798;2022-07-23T05:30:26;25.50;99.90
7216;DHT22;3649;48.798;9.798;2022-07-23T05:32:53;25.60;99.90
7216;DHT22;3649;48.798;9.798;2022-07-23T05:35:20;25.60;99.90
7216;DHT22;3649;48.798;9.798;2022-07-23T05:37:47;25.70;99.90
7216;DHT22;3649;48.798;9.798;2022-07-23T05:40:14;25.70;99.90
7216;DHT22;3649;48.798;9.798;2022-07-23T05:42:41;25.80;99.90
7216;DHT22;3649;48.798;9.798;2022-07-23T05:45:11;25.80;99.90
7216;DHT22;3649;48.798;9.798;2022-07-23T05:47:48;25.90;99.90
7216;DHT22;3649;48.798;9.798;2022-07-23T05:50:16;25.90;99.90
7216;DHT22;3649;48.798;9.798;2022-07-23T05:52:43;25.90;99.90
7216;DHT22;3649;48.798;9.798;2022-07-23T05:55:10;25.90;99.90
7216;DHT22;3649;48.798;9.798;2022-07-23T05:57:39;26.00;99.90
7216;DHT22;3649;48.798;9.798;2022-07-23T06:00:08;26.00;99.90
7216;DHT22;3649;48.798;9.798;2022-07-23T06:02:37;26.10;99.90
7216;DHT22;3649;48.798;9.798;2022-07-23T06:05:05;26.10;99.90
7216;DHT22;3649;48.798;9.798;2022-07-23T06:07:34;26.10;99.90
7216;DHT22;3649;48.798;9.798;2022-07-23T06:10:01;26.10;99.90
7216;DHT22;3649;48.798;9.798;2022-07-23T06:12:28;26.10;99.90
7216;DHT22;3649;48.798;9.798;2022-07-23T06:14:55;26.10;99.90
7216;DHT22;3649;48.798;9.798;2022-07-23T06:17:22;26.20;99.90
7216;DHT22;3649;48.798;9.798;2022-07-23T06:19:51;26.10;99.90
7216;DHT22;3649;48.798;9.798;2022-07-23T06:22:18;26.20;99.90
7216;DHT22;3649;48.798;9.798;2022-07-23T06:24:45;26.20;99.90
7216;DHT22;3649;48.798;9.798;2022-07-23T06:27:12;26.20;99.90
7216;DHT22;3649;48.798;9.798;2022-07-23T06:29:40;26.30;99.90
7216;DHT22;3649;48.798;9.798;2022-07-23T06:32:08;26.30;99.90
7216;DHT22;3649;48.798;9.798;2022-07-23T06:34:35;26.30;99.90
7216;DHT22;3649;48.798;9.798;2022-07-23T06:37:02;26.30;99.90
7216;DHT22;3649;48.798;9.798;2022-07-23T06:39:29;26.30;99.90
7216;DHT22;3649;48.798;9.798;2022-07-23T06:41:56;26.40;99.90
7216;DHT22;3649;48.798;9.798;2022-07-23T06:44:27;26.50;99.90
7216;DHT22;3649;48.798;9.798;2022-07-23T06:46:53;26.60;99.90
7216;DHT22;3649;48.798;9.798;2022-07-23T06:49:20;26.60;99.90
7216;DHT22;3649;48.798;9.798;2022-07-23T06:51:48;26.60;99.90
7216;DHT22;3649;48.798;9.798;2022-07-23T06:54:14;26.60;99.90
7216;DHT22;3649;48.798;9.798;2022-07-23T06:56:41;26.70;99.90
7216;DHT22;3649;48.798;9.798;2022-07-23T06:59:10;26.70;99.90
7216;DHT22;3649;48.798;9.798;2022-07-23T07:01:37;26.90;99.90
7216;DHT22;3649;48.798;9.798;2022-07-23T07:04:04;27.10;99.90
7216;DHT22;3649;48.798;9.798;2022-07-23T07:06:30;27.30;99.90
7216;DHT22;3649;48.798;9.798;2022-07-23T07:08:57;27.50;99.90
7216;DHT22;3649;48.798;9.798;2022-07-23T07:11:25;27.60;99.90
7216;DHT22;3649;48.798;9.798;2022-07-23T07:13:52;27.80;99.90
7216;DHT22;3649;48.798;9.798;2022-07-23T07:16:19;28.00;99.90
7216;DHT22;3649;48.798;9.798;2022-07-23T07:18:46;28.00;99.90
7216;DHT22;3649;48.798;9.798;2022-07-23T07:21:13;28.10;99.90
7216;DHT22;3649;48.798;9.798;2022-07-23T07:23:40;28.10;99.90
7216;DHT22;3649;48.798;9.798;2022-07-23T07:26:07;28.00;99.90
7216;DHT22;3649;48.798;9.798;2022-07-23T07:28:33;27.90;99.90
7216;DHT22;3649;48.798;9.798;2022-07-23T07:31:00;27.80;99.90
7216;DHT22;3649;48.798;9.798;2022-07-23T07:33:29;27.80;99.90
7216;DHT22;3649;48.798;9.798;2022-07-23T07:35:56;27.80;99.90
7216;DHT22;3649;48.798;9.798;2022-07-23T07:38:23;27.70;99.90
7216;DHT22;3649;48.798;9.798;2022-07-23T07:40:50;27.70;99.90
7216;DHT22;3649;48.798;9.798;2022-07-23T07:43:17;27.80;99.90
7216;DHT22;3649;48.798;9.798;2022-07-23T07:45:44;27.70;99.90
7216;DHT22;3649;48.798;9.798;2022-07-23T07:48:11;27.80;99.90
7216;DHT22;3649;48.798;9.798;2022-07-23T07:50:38;27.70;99.90
7216;DHT22;3649;48.798;9.798;2022-07-23T07:53:05;27.70;99.90
7216;DHT22;3649;48.798;9.798;2022-07-23T07:55:32;27.70;99.90
7216;DHT22;3649;48.798;9.798;2022-07-23T07:57:59;27.70;99.90
7216;DHT22;3649;48.798;9.798;2022-07-23T08:00:28;27.70;99.90
7216;DHT22;3649;48.798;9.798;2022-07-23T08:02:55;27.60;99.90
7216;DHT22;3649;48.798;9.798;2022-07-23T08:05:26;27.60;99.90
7216;DHT22;3649;48.798;9.798;2022-07-23T08:07:58;27.60;99.90
7216;DHT22;3649;48.798;9.798;2022-07-23T08:10:27;27.60;99.90
7216;DHT22;3649;48.798;9.798;2022-07-23T08:12:55;27.60;99.90
7216;DHT22;3649;48.798;9.798;2022-07-23T08:15:27;27.70;99.90
7216;DHT22;3649;48.798;9.798;2022-07-23T08:17:55;27.70;99.90
7216;DHT22;3649;48.798;9.798;2022-07-23T08:20:23;27.70;99.90
7216;DHT22;3649;48.798;9.798;2022-07-23T08:22:56;27.70;99.90
7216;DHT22;3649;48.798;9.798;2022-07-23T08:25:26;27.70;99.90
7216;DHT22;3649;48.798;9.798;2022-07-23T08:27:53;27.80;99.90
7216;DHT22;3649;48.798;9.798;2022-07-23T08:30:21;27.70;99.90
7216;DHT22;3649;48.798;9.798;2022-07-23T08:33:02;27.70;99.90
7216;DHT22;3649;48.798;9.798;2022-07-23T08:35:31;27.80;99.90
7216;DHT22;3649;48.798;9.798;2022-07-23T08:37:59;27.80;99.90
7216;DHT22;3649;48.798;9.798;2022-07-23T08:40:27;27.90;99.90
7216;DHT22;3649;48.798;9.798;2022-07-23T08:42:55;27.90;99.90
7216;DHT22;3649;48.798;9.798;2022-07-23T08:45:25;28.00;99.90
7216;DHT22;3649;48.798;9.798;2022-07-23T08:47:54;28.00;99.90
7216;DHT22;3649;48.798;9.798;2022-07-23T08:50:23;28.00;99.90
7216;DHT22;3649;48.798;9.798;2022-07-23T08:52:51;28.10;99.90
7216;DHT22;3649;48.798;9.798;2022-07-23T08:55:20;28.10;99.90
7216;DHT22;3649;48.798;9.798;2022-07-23T08:57:52;28.10;99.90
7216;DHT22;3649;48.798;9.798;2022-07-23T09:00:20;28.10;99.90
7216;DHT22;3649;48.798;9.798;2022-07-23T09:02:49;28.10;99.90
7216;DHT22;3649;48.798;9.798;2022-07-23T09:05:18;28.10;99.90
7216;DHT22;3649;48.798;9.798;2022-07-23T09:08:10;28.20;99.90
7216;DHT22;3649;48.798;9.798;2022-07-23T09:16:24;28.20;99.90
7216;DHT22;3649;48.798;9.798;2022-07-23T09:19:01;28.10;99.90
7216;DHT22;3649;48.798;9.798;2022-07-23T09:21:36;28.10;99.90
7216;DHT22;3649;48.798;9.798;2022-07-23T09:24:07;28.10;99.90
7216;DHT22;3649;48.798;9.798;2022-07-23T09:26:45;28.10;99.90
7216;DHT22;3649;48.798;9.798;2022-07-23T09:31:51;28.10;99.90
7216;DHT22;3649;48.798;9.798;2022-07-23T09:34:32;28.20;99.90
7216;DHT22;3649;48.798;9.798;2022-07-23T09:37:11;28.30;99.90
7216;DHT22;3649;48.798;9.798;2022-07-23T09:39:41;28.30;99.90
7216;DHT22;3649;48.798;9.798;2022-07-23T09:42:25;28.40;99.90
7216;DHT22;3649;48.798;9.798;2022-07-23T09:44:57;28.40;99.90
7216;DHT22;3649;48.798;9.798;2022-07-23T09:47:26;28.40;99.90
7216;DHT22;3649;48.798;9.798;2022-07-23T09:50:12;28.50;99.90
7216;DHT22;3649;48.798;9.798;2022-07-23T09:52:45;28.40;99.90
7216;DHT22;3649;48.798;9.798;2022-07-23T09:55:15;28.40;99.90
7216;DHT22;3649;48.798;9.798;2022-07-23T09:57:43;28.40;99.90
7216;DHT22;3649;48.798;9.798;2022-07-23T10:00:23;28.40;99.90
7216;DHT22;3649;48.798;9.798;2022-07-23T10:02:50;28.40;99.90
7216;DHT22;3649;48.798;9.798;2022-07-23T10:05:19;28.50;99.90
7216;DHT22;3649;48.798;9.798;2022-07-23T10:07:48;28.50;99.90
7216;DHT22;3649;48.798;9.798;2022-07-23T10:10:20;28.50;99.90
7216;DHT22;3649;48.798;9.798;2022-07-23T10:12:48;28.50;99.90
7216;DHT22;3649;48.798;9.798;2022-07-23T10:45:36;26.20;99.90
7216;DHT22;3649;48.798;9.798;2022-07-23T10:48:24;28.40;99.90
7216;DHT22;3649;48.798;9.798;2022-07-23T10:51:11;28.50;99.90
7216;DHT22;3649;48.798;9.798;2022-07-23T10:53:53;28.60;99.90
7216;DHT22;3649;48.798;9.798;2022-07-23T10:59:24;28.60;99.90
7216;DHT22;3649;48.798;9.798;2022-07-23T11:01:51;28.70;99.90
7216;DHT22;3649;48.798;9.798;2022-07-23T11:04:18;28.70;99.90
7216;DHT22;3649;48.798;9.798;2022-07-23T11:09:26;28.70;99.90
7216;DHT22;3649;48.798;9.798;2022-07-23T11:17:36;28.80;99.90
7216;DHT22;3649;48.798;9.798;2022-07-23T11:25:12;28.90;99.90
7216;DHT22;3649;48.798;9.798;2022-07-23T11:27:44;28.90;99.90
7216;DHT22;3649;48.798;9.798;2022-07-23T11:30:43;28.90;99.90
7216;DHT22;3649;48.798;9.798;2022-07-23T11:35:43;29.10;99.90
7216;DHT22;3649;48.798;9.798;2022-07-23T11:38:22;29.10;99.90
7216;DHT22;3649;48.798;9.798;2022-07-23T11:40:52;29.10;99.90
7216;DHT22;3649;48.798;9.798;2022-07-23T11:43:19;29.10;99.90
7216;DHT22;3649;48.798;9.798;2022-07-23T11:45:48;29.10;99.90
7216;DHT22;3649;48.798;9.798;2022-07-23T11:50:47;29.00;99.90
7216;DHT22;3649;48.798;9.798;2022-07-23T11:53:28;29.00;99.90
7216;DHT22;3649;48.798;9.798;2022-07-23T11:56:15;29.00;99.90
7216;DHT22;3649;48.798;9.798;2022-07-23T11:58:54;29.00;99.90
7216;DHT22;3649;48.798;9.798;2022-07-23T12:01:22;29.10;99.90
7216;DHT22;3649;48.798;9.798;2022-07-23T12:03:50;29.00;99.90
7216;DHT22;3649;48.798;9.798;2022-07-23T12:06:17;29.10;99.90
7216;DHT22;3649;48.798;9.798;2022-07-23T12:08:45;29.20;99.90
7216;DHT22;3649;48.798;9.798;2022-07-23T12:11:12;29.30;99.60
7216;DHT22;3649;48.798;9.798;2022-07-23T12:13:39;29.30;99.70
7216;DHT22;3649;48.798;9.798;2022-07-23T12:16:06;29.40;99.50
7216;DHT22;3649;48.798;9.798;2022-07-23T12:18:35;29.40;99.90
7216;DHT22;3649;48.798;9.798;2022-07-23T12:21:04;29.30;99.30
7216;DHT22;3649;48.798;9.798;2022-07-23T12:23:33;29.30;99.20
7216;DHT22;3649;48.798;9.798;2022-07-23T12:26:01;29.40;98.90
7216;DHT22;3649;48.798;9.798;2022-07-23T12:28:30;29.40;99.00
7216;DHT22;3649;48.798;9.798;2022-07-23T12:30:59;29.40;99.00
7216;DHT22;3649;48.798;9.798;2022-07-23T12:33:35;29.30;99.30
7216;DHT22;3649;48.798;9.798;2022-07-23T12:36:07;29.30;99.60
7216;DHT22;3649;48.798;9.798;2022-07-23T12:38:48;29.30;98.70
7216;DHT22;3649;48.798;9.798;2022-07-23T12:41:17;29.50;98.70
7216;DHT22;3649;48.798;9.798;2022-07-23T12:43:45;29.50;98.90
7216;DHT22;3649;48.798;9.798;2022-07-23T12:46:18;29.50;98.80
7216;DHT22;3649;48.798;9.798;2022-07-23T12:51:25;29.40;99.70
7216;DHT22;3649;48.798;9.798;2022-07-23T12:53:59;29.50;98.70
7216;DHT22;3649;48.798;9.798;2022-07-23T12:56:33;29.50;98.90
7216;DHT22;3649;48.798;9.798;2022-07-23T13:01:36;29.50;98.70
7216;DHT22;3649;48.798;9.798;2022-07-23T13:04:09;29.40;98.50
7216;DHT22;3649;48.798;9.798;2022-07-23T13:06:43;29.40;98.20
7216;DHT22;3649;48.798;9.798;2022-07-23T13:09:13;29.50;97.60
7216;DHT22;3649;48.798;9.798;2022-07-23T13:11:42;29.50;98.20
7216;DHT22;3649;48.798;9.798;2022-07-23T13:14:10;29.50;98.70
7216;DHT22;3649;48.798;9.798;2022-07-23T13:16:39;29.40;98.90
7216;DHT22;3649;48.798;9.798;2022-07-23T13:19:06;29.40;98.40
7216;DHT22;3649;48.798;9.798;2022-07-23T13:21:39;29.40;98.00
7216;DHT22;3649;48.798;9.798;2022-07-23T13:24:08;29.50;98.30
7216;DHT22;3649;48.798;9.798;2022-07-23T13:26:35;29.50;97.60
7216;DHT22;3649;48.798;9.798;2022-07-23T13:29:03;29.50;97.50
7216;DHT22;3649;48.798;9.798;2022-07-23T13:31:36;29.50;97.40
7216;DHT22;3649;48.798;9.798;2022-07-23T13:34:05;29.50;97.40
7216;DHT22;3649;48.798;9.798;2022-07-23T13:36:34;29.50;97.90
7216;DHT22;3649;48.798;9.798;2022-07-23T13:39:01;29.50;97.50
7216;DHT22;3649;48.798;9.798;2022-07-23T13:41:30;29.50;96.90
7216;DHT22;3649;48.798;9.798;2022-07-23T13:43:57;29.60;96.60
7216;DHT22;3649;48.798;9.798;2022-07-23T13:46:24;29.60;96.60
7216;DHT22;3649;48.798;9.798;2022-07-23T13:48:52;29.70;96.20
7216;DHT22;3649;48.798;9.798;2022-07-23T13:51:19;29.70;97.00
7216;DHT22;3649;48.798;9.798;2022-07-23T13:53:50;29.70;96.90
7216;DHT22;3649;48.798;9.798;2022-07-23T13:56:17;29.60;97.70
7216;DHT22;3649;48.798;9.798;2022-07-23T13:58:44;29.60;97.10
7216;DHT22;3649;48.798;9.798;2022-07-23T14:01:10;29.60;97.60
7216;DHT22;3649;48.798;9.798;2022-07-23T14:03:38;29.60;97.10
7216;DHT22;3649;48.798;9.798;2022-07-23T14:06:06;29.80;96.80
7216;DHT22;3649;48.798;9.798;2022-07-23T14:08:43;29.90;96.90
7216;DHT22;3649;48.798;9.798;2022-07-23T14:11:12;29.90;96.70
7216;DHT22;3649;48.798;9.798;2022-07-23T14:13:38;30.00;97.20
7216;DHT22;3649;48.798;9.798;2022-07-23T14:16:07;29.90;97.70
7216;DHT22;3649;48.798;9.798;2022-07-23T14:18:34;29.80;97.00
7216;DHT22;3649;48.798;9.798;2022-07-23T14:21:02;29.90;96.90
7216;DHT22;3649;48.798;9.798;2022-07-23T14:23:29;29.90;97.60
7216;DHT22;3649;48.798;9.798;2022-07-23T14:25:56;29.80;97.60
7216;DHT22;3649;48.798;9.798;2022-07-23T14:28:23;29.70;97.60
7216;DHT22;3649;48.798;9.798;2022-07-23T14:30:50;29.70;98.20
7216;DHT22;3649;48.798;9.798;2022-07-23T14:33:17;29.70;97.70
7216;DHT22;3649;48.798;9.798;2022-07-23T14:35:44;29.80;97.50
7216;DHT22;3649;48.798;9.798;2022-07-23T14:38:12;29.80;97.50
7216;DHT22;3649;48.798;9.798;2022-07-23T14:40:40;29.80;97.90
7216;DHT22;3649;48.798;9.798;2022-07-23T14:43:08;29.80;97.30
7216;DHT22;3649;48.798;9.798;2022-07-23T14:45:36;29.80;97.10
7216;DHT22;3649;48.798;9.798;2022-07-23T14:48:03;29.90;97.40
7216;DHT22;3649;48.798;9.798;2022-07-23T14:50:30;29.80;97.00
7216;DHT22;3649;48.798;9.798;2022-07-23T14:52:58;29.80;97.40
7216;DHT22;3649;48.798;9.798;2022-07-23T14:55:24;29.80;97.80
7216;DHT22;3649;48.798;9.798;2022-07-23T14:57:52;29.70;97.70
7216;DHT22;3649;48.798;9.798;2022-07-23T15:00:19;29.60;98.30
7216;DHT22;3649;48.798;9.798;2022-07-23T15:02:50;29.50;98.80
7216;DHT22;3649;48.798;9.798;2022-07-23T15:05:21;29.60;97.80
7216;DHT22;3649;48.798;9.798;2022-07-23T15:07:48;29.80;97.40
7216;DHT22;3649;48.798;9.798;2022-07-23T15:10:16;29.90;97.50
7216;DHT22;3649;48.798;9.798;2022-07-23T15:12:48;29.90;97.50
7216;DHT22;3649;48.798;9.798;2022-07-23T15:15:15;30.00;97.70
7216;DHT22;3649;48.798;9.798;2022-07-23T15:17:43;30.00;98.10
7216;DHT22;3649;48.798;9.798;2022-07-23T15:20:10;30.00;98.30
7216;DHT22;3649;48.798;9.798;2022-07-23T15:22:40;29.90;98.20
7216;DHT22;3649;48.798;9.798;2022-07-23T15:25:08;29.80;98.40
7216;DHT22;3649;48.798;9.798;2022-07-23T15:27:38;29.70;98.30
7216;DHT22;3649;48.798;9.798;2022-07-23T15:30:05;29.70;97.40
7216;DHT22;3649;48.798;9.798;2022-07-23T15:32:34;29.70;97.60
7216;DHT22;3649;48.798;9.798;2022-07-23T15:35:01;29.70;98.10
7216;DHT22;3649;48.798;9.798;2022-07-23T15:37:29;29.70;97.80
7216;DHT22;3649;48.798;9.798;2022-07-23T15:39:56;29.70;97.50
7216;DHT22;3649;48.798;9.798;2022-07-23T15:42:23;29.80;97.20
7216;DHT22;3649;48.798;9.798;2022-07-23T15:44:50;29.80;98.10
7216;DHT22;3649;48.798;9.798;2022-07-23T15:47:18;29.80;97.20
7216;DHT22;3649;48.798;9.798;2022-07-23T15:49:45;29.80;97.80
7216;DHT22;3649;48.798;9.798;2022-07-23T15:52:12;29.70;96.90
7216;DHT22;3649;48.798;9.798;2022-07-23T15:54:40;29.80;96.50
7216;DHT22;3649;48.798;9.798;2022-07-23T15:57:07;29.70;97.60
7216;DHT22;3649;48.798;9.798;2022-07-23T15:59:34;29.60;98.00
7216;DHT22;3649;48.798;9.798;2022-07-23T16:02:02;29.50;98.30
7216;DHT22;3649;48.798;9.798;2022-07-23T16:04:29;29.40;97.40
7216;DHT22;3649;48.798;9.798;2022-07-23T16:06:56;29.50;96.90
7216;DHT22;3649;48.798;9.798;2022-07-23T16:09:23;29.60;96.50
7216;DHT22;3649;48.798;9.798;2022-07-23T16:11:50;29.70;97.00
7216;DHT22;3649;48.798;9.798;2022-07-23T16:14:17;29.60;97.80
7216;DHT22;3649;48.798;9.798;2022-07-23T16:16:44;29.50;97.30
7216;DHT22;3649;48.798;9.798;2022-07-23T16:19:11;29.50;96.80
7216;DHT22;3649;48.798;9.798;2022-07-23T16:21:38;29.50;97.80
7216;DHT22;3649;48.798;9.798;2022-07-23T16:24:05;29.40;97.30
7216;DHT22;3649;48.798;9.798;2022-07-23T16:26:32;29.30;97.70
7216;DHT22;3649;48.798;9.798;2022-07-23T16:28:59;29.30;98.20
7216;DHT22;3649;48.798;9.798;2022-07-23T16:31:27;29.30;97.60
7216;DHT22;3649;48.798;9.798;2022-07-23T16:33:54;29.20;97.70
7216;DHT22;3649;48.798;9.798;2022-07-23T16:36:22;29.20;97.50
7216;DHT22;3649;48.798;9.798;2022-07-23T16:38:50;29.20;97.70
7216;DHT22;3649;48.798;9.798;2022-07-23T16:41:17;29.10;98.40
7216;DHT22;3649;48.798;9.798;2022-07-23T16:43:44;29.10;97.00
7216;DHT22;3649;48.798;9.798;2022-07-23T16:46:12;29.10;97.80
7216;DHT22;3649;48.798;9.798;2022-07-23T16:48:39;29.00;98.30
7216;DHT22;3649;48.798;9.798;2022-07-23T16:51:06;29.00;98.60
7216;DHT22;3649;48.798;9.798;2022-07-23T16:53:34;28.90;98.90
7216;DHT22;3649;48.798;9.798;2022-07-23T16:56:03;28.90;98.20
7216;DHT22;3649;48.798;9.798;2022-07-23T16:58:31;28.80;97.90
7216;DHT22;3649;48.798;9.798;2022-07-23T17:00:58;28.80;98.50
7216;DHT22;3649;48.798;9.798;2022-07-23T17:03:25;28.80;98.80
7216;DHT22;3649;48.798;9.798;2022-07-23T17:05:53;28.80;98.00
7216;DHT22;3649;48.798;9.798;2022-07-23T17:08:21;28.70;97.60
7216;DHT22;3649;48.798;9.798;2022-07-23T17:10:47;28.80;97.90
7216;DHT22;3649;48.798;9.798;2022-07-23T17:13:14;28.80;98.40
7216;DHT22;3649;48.798;9.798;2022-07-23T17:15:41;28.80;98.90